createdAt,value
2022-11-29T00:00:49.392Z,32.25
2022-11-29T00:03:15.901Z,34.47
2022-11-29T00:05:42.591Z,33.97
2022-11-29T00:08:09.539Z,32.88
2022-11-29T00:10:36.851Z,35.25
2022-11-29T00:13:03.666Z,34.47
2022-11-29T00:15:29.909Z,33.72
2022-11-29T00:17:56.270Z,32.55
2022-11-29T00:20:22.661Z,33.00
2022-11-29T00:22:48.890Z,33.92
2022-11-29T00:25:15.325Z,35.50
2022-11-29T00:27:41.605Z,35.25
2022-11-29T00:30:08.186Z,34.38
2022-11-29T00:32:35.364Z,37.38
2022-11-29T00:35:06.584Z,35.97
2022-11-29T00:37:35.831Z,32.35
2022-11-29T00:40:02.272Z,34.35
2022-11-29T00:42:28.532Z,34.55
2022-11-29T00:44:54.777Z,32.85
2022-11-29T00:47:21.041Z,35.05
2022-11-29T00:49:47.363Z,32.10
2022-11-29T00:52:13.724Z,32.17
2022-11-29T00:54:40.033Z,32.10
2022-11-29T00:57:06.351Z,32.45
2022-11-29T00:59:32.678Z,29.27
2022-11-29T01:01:59.044Z,31.02
2022-11-29T01:04:25.364Z,30.42
2022-11-29T01:06:52.514Z,33.55
2022-11-29T01:09:19.441Z,36.25
2022-11-29T01:11:45.772Z,32.72
2022-11-29T01:14:12.594Z,33.15
2022-11-29T01:16:38.928Z,33.92
2022-11-29T01:19:07.231Z,31.25
2022-11-29T01:21:33.558Z,37.40
2022-11-29T01:24:00.602Z,33.42
2022-11-29T01:26:27.899Z,31.02
2022-11-29T01:28:55.088Z,33.80
2022-11-29T01:31:25.780Z,31.73
2022-11-29T01:33:56.094Z,34.78
2022-11-29T01:36:22.564Z,32.13
2022-11-29T01:38:48.863Z,31.75
2022-11-29T01:41:20.020Z,32.28
2022-11-29T01:44:06.969Z,33.90
2022-11-29T01:46:34.512Z,31.33
2022-11-29T01:49:08.106Z,29.27
2022-11-29T01:51:35.842Z,29.95
2022-11-29T01:54:02.365Z,29.98
2022-11-29T01:56:29.591Z,31.98
2022-11-29T01:58:56.007Z,31.92
2022-11-29T02:01:22.525Z,29.90
2022-11-29T02:03:48.909Z,29.00
2022-11-29T02:06:15.902Z,31.10
2022-11-29T02:08:42.718Z,32.35
2022-11-29T02:11:15.038Z,31.42
2022-11-29T02:14:00.311Z,32.85
2022-11-29T02:16:35.994Z,28.50
2022-11-29T02:19:24.968Z,30.48
2022-11-29T02:21:58.006Z,30.85
2022-11-29T02:24:47.717Z,29.65
2022-11-29T02:27:17.124Z,29.13
2022-11-29T02:29:50.475Z,27.90
2022-11-29T02:32:25.742Z,28.48
2022-11-29T02:34:56.006Z,27.05
2022-11-29T02:37:22.494Z,25.73
2022-11-29T02:39:51.539Z,30.50
2022-11-29T02:42:55.809Z,28.42
2022-11-29T02:45:36.274Z,25.63
2022-11-29T02:48:02.488Z,26.05
2022-11-29T02:50:37.684Z,26.38
2022-11-29T02:53:26.990Z,25.80
2022-11-29T02:55:59.436Z,24.85
2022-11-29T02:58:25.702Z,25.65
2022-11-29T03:00:57.946Z,26.50
2022-11-29T03:03:27.494Z,27.38
2022-11-29T03:05:59.082Z,25.65
2022-11-29T03:08:43.739Z,24.67
2022-11-29T03:11:17.500Z,25.35
2022-11-29T03:13:43.762Z,23.88
2022-11-29T03:16:28.546Z,25.05
2022-11-29T03:19:15.254Z,26.55
2022-11-29T03:21:44.350Z,29.73
2022-11-29T03:24:31.721Z,26.77
2022-11-29T03:27:06.637Z,23.65
2022-11-29T03:29:34.516Z,27.80
2022-11-29T03:32:09.737Z,27.25
2022-11-29T03:34:45.207Z,24.48
2022-11-29T03:37:11.825Z,23.38
2022-11-29T03:39:44.031Z,24.38
2022-11-29T03:42:14.050Z,25.13
2022-11-29T03:44:43.154Z,23.77
2022-11-29T03:47:14.572Z,23.90
2022-11-29T03:49:44.853Z,23.40
2022-11-29T03:52:20.056Z,25.75
2022-11-29T03:55:15.763Z,26.15
2022-11-29T03:57:42.258Z,25.80
2022-11-29T04:00:10.453Z,23.38
2022-11-29T04:02:55.178Z,32.45
2022-11-29T04:05:40.126Z,23.13
2022-11-29T04:08:20.670Z,30.63
2022-11-29T04:11:14.982Z,25.40
2022-11-29T04:13:50.193Z,29.05
2022-11-29T04:16:16.429Z,23.65
2022-11-29T04:18:42.708Z,23.67
2022-11-29T04:21:14.863Z,24.77
2022-11-29T04:24:00.036Z,25.60
2022-11-29T04:26:29.675Z,21.83
2022-11-29T04:29:04.529Z,22.83
2022-11-29T04:31:42.983Z,24.63
2022-11-29T04:34:09.250Z,20.13
2022-11-29T04:36:43.804Z,19.00
2022-11-29T04:39:12.840Z,20.75
2022-11-29T04:41:57.977Z,28.90
2022-11-29T04:44:30.289Z,21.73
2022-11-29T04:46:59.618Z,24.52
2022-11-29T04:49:36.216Z,22.75
2022-11-29T04:52:08.537Z,20.88
2022-11-29T04:54:39.360Z,22.17
2022-11-29T04:57:11.872Z,22.10
2022-11-29T04:59:54.013Z,21.88
2022-11-29T05:02:38.974Z,22.13
2022-11-29T05:05:17.525Z,24.08
2022-11-29T05:07:58.349Z,22.13
2022-11-29T05:10:30.466Z,22.08
2022-11-29T05:13:06.081Z,26.10
2022-11-29T05:20:43.117Z,23.80
2022-11-29T05:23:27.981Z,22.40
2022-11-29T05:25:57.366Z,21.30
2022-11-29T05:28:26.606Z,23.00
2022-11-29T05:31:19.484Z,29.08
2022-11-29T05:34:04.630Z,26.63
2022-11-29T05:36:40.414Z,21.27
2022-11-29T05:39:22.057Z,25.58
2022-11-29T05:42:12.652Z,24.27
2022-11-29T05:44:42.025Z,21.55
2022-11-29T05:47:10.188Z,23.92
2022-11-29T05:49:55.814Z,19.05
2022-11-29T05:52:31.192Z,20.90
2022-11-29T05:55:00.476Z,19.75
2022-11-29T05:57:32.894Z,18.88
2022-11-29T06:00:01.018Z,22.30
2022-11-29T06:02:27.489Z,19.17
2022-11-29T06:04:57.199Z,19.63
2022-11-29T06:07:27.902Z,19.50
2022-11-29T06:10:02.623Z,20.20
2022-11-29T06:12:31.865Z,20.15
2022-11-29T06:14:58.139Z,21.20
2022-11-29T06:17:48.675Z,24.63
2022-11-29T06:20:23.322Z,19.58
2022-11-29T06:23:07.546Z,18.47
2022-11-29T06:25:47.048Z,18.80
2022-11-29T06:28:13.294Z,20.63
2022-11-29T06:30:39.539Z,18.25
2022-11-29T06:33:13.931Z,20.63
2022-11-29T06:36:12.862Z,18.75
2022-11-29T06:38:39.159Z,18.13
2022-11-29T06:41:05.622Z,17.38
2022-11-29T06:43:32.085Z,18.13
2022-11-29T06:46:04.569Z,15.07
2022-11-29T06:48:35.361Z,15.27
2022-11-29T06:51:34.125Z,15.70
2022-11-29T06:54:06.336Z,14.32
2022-11-29T06:56:35.403Z,15.18
2022-11-29T06:59:17.095Z,15.15
2022-11-29T07:01:47.273Z,15.30
2022-11-29T07:04:45.414Z,16.98
2022-11-29T07:07:14.391Z,14.95
2022-11-29T07:09:41.473Z,16.85
2022-11-29T07:12:08.275Z,15.45
2022-11-29T07:14:35.320Z,14.10
2022-11-29T07:17:40.170Z,14.70
2022-11-29T07:20:07.952Z,13.27
2022-11-29T07:22:43.183Z,13.13
2022-11-29T07:25:27.783Z,16.02
2022-11-29T07:28:12.794Z,12.63
2022-11-29T07:30:53.349Z,13.87
2022-11-29T07:33:19.637Z,12.95
2022-11-29T07:35:50.625Z,14.45
2022-11-29T07:38:25.817Z,13.73
2022-11-29T07:40:56.941Z,14.85
2022-11-29T07:43:49.281Z,12.85
2022-11-29T07:46:15.660Z,12.98
2022-11-29T07:48:42.060Z,11.82
2022-11-29T07:51:08.796Z,14.00
2022-11-29T07:53:37.344Z,14.32
2022-11-29T07:56:03.678Z,13.35
2022-11-29T07:58:30.013Z,15.98
2022-11-29T08:00:56.370Z,13.80
2022-11-29T08:03:22.697Z,14.02
2022-11-29T08:05:48.990Z,12.93
2022-11-29T08:08:15.540Z,12.20
2022-11-29T08:10:42.065Z,13.30
2022-11-29T08:13:08.400Z,11.35
2022-11-29T08:15:35.138Z,12.00
2022-11-29T08:18:02.508Z,11.68
2022-11-29T08:20:28.835Z,11.35
2022-11-29T08:22:56.180Z,10.93
2022-11-29T08:25:22.815Z,12.07
2022-11-29T08:27:49.059Z,10.40
2022-11-29T08:30:18.554Z,11.15
2022-11-29T08:32:49.929Z,10.90
2022-11-29T08:35:18.807Z,11.02
2022-11-29T08:37:45.101Z,11.88
2022-11-29T08:40:12.011Z,12.82
2022-11-29T08:42:38.307Z,11.82
2022-11-29T08:45:06.221Z,12.45
2022-11-29T08:47:35.750Z,12.00
2022-11-29T08:50:03.030Z,11.40
2022-11-29T08:52:48.839Z,11.05
2022-11-29T08:55:15.557Z,11.27
2022-11-29T08:57:42.120Z,11.40
2022-11-29T09:00:08.830Z,11.35
2022-11-29T09:02:35.872Z,13.70
2022-11-29T09:05:02.489Z,12.20
2022-11-29T09:07:28.846Z,12.43
2022-11-29T09:09:55.174Z,13.23
2022-11-29T09:12:21.470Z,12.18
2022-11-29T09:14:47.752Z,14.90
2022-11-29T09:17:14.083Z,12.02
2022-11-29T09:19:40.826Z,10.88
2022-11-29T09:22:07.151Z,10.88
2022-11-29T09:24:34.001Z,10.68
2022-11-29T09:27:00.317Z,11.52
2022-11-29T09:29:26.722Z,10.82
2022-11-29T09:31:53.146Z,10.77
2022-11-29T09:34:19.517Z,9.38
2022-11-29T09:36:45.896Z,9.90
2022-11-29T09:39:15.260Z,9.57
2022-11-29T09:41:59.924Z,9.43
2022-11-29T09:44:38.251Z,10.75
2022-11-29T09:47:21.681Z,10.00
2022-11-29T09:50:06.724Z,7.90
2022-11-29T09:52:42.089Z,8.57
2022-11-29T09:55:21.405Z,9.30
2022-11-29T09:57:48.831Z,9.13
2022-11-29T10:00:16.072Z,9.98
2022-11-29T10:02:47.563Z,10.20
2022-11-29T10:05:20.706Z,11.25
2022-11-29T10:08:07.213Z,10.02
2022-11-29T10:10:41.038Z,11.18
2022-11-29T10:13:13.139Z,10.45
2022-11-29T10:15:42.054Z,11.65
2022-11-29T10:18:11.060Z,11.25
2022-11-29T10:20:42.496Z,11.73
2022-11-29T10:23:29.693Z,11.80
2022-11-29T10:25:57.289Z,12.38
2022-11-29T10:28:30.597Z,12.98
2022-11-29T10:31:00.313Z,12.10
2022-11-29T10:33:28.488Z,12.38
2022-11-29T10:35:57.391Z,13.15
2022-11-29T10:38:31.216Z,12.25
2022-11-29T10:41:01.623Z,11.55
2022-11-29T10:43:30.258Z,12.55
2022-11-29T10:45:58.734Z,12.63
2022-11-29T10:48:27.363Z,14.10
2022-11-29T10:50:53.822Z,13.98
2022-11-29T10:53:23.211Z,14.30
2022-11-29T10:55:51.817Z,12.48
2022-11-29T10:58:24.736Z,12.13
2022-11-29T11:01:01.600Z,12.27
2022-11-29T11:03:35.666Z,10.82
2022-11-29T11:06:22.276Z,12.18
2022-11-29T11:09:08.572Z,10.95
2022-11-29T11:11:34.889Z,12.50
2022-11-29T11:14:03.551Z,12.38
2022-11-29T11:16:35.604Z,13.38
2022-11-29T11:19:23.560Z,12.73
2022-11-29T11:21:49.889Z,12.23
2022-11-29T11:24:23.733Z,13.38
2022-11-29T11:26:50.253Z,12.95
2022-11-29T11:29:20.960Z,13.48
2022-11-29T11:31:52.176Z,12.57
2022-11-29T11:34:31.571Z,11.98
2022-11-29T11:37:16.406Z,12.73
2022-11-29T11:39:43.521Z,14.05
2022-11-29T11:42:33.762Z,14.10
2022-11-29T11:45:00.674Z,14.30
2022-11-29T11:47:28.614Z,14.30
2022-11-29T11:50:02.237Z,14.15
2022-11-29T11:52:52.320Z,14.10
2022-11-29T11:55:21.557Z,13.13
2022-11-29T11:58:09.377Z,13.43
2022-11-29T12:01:03.931Z,12.00
2022-11-29T12:03:45.958Z,12.20
2022-11-29T12:06:27.877Z,11.35
2022-11-29T12:09:03.762Z,12.75
2022-11-29T12:11:33.899Z,13.15
2022-11-29T12:14:02.083Z,12.77
2022-11-29T12:16:30.115Z,12.80
2022-11-29T12:19:00.652Z,12.98
2022-11-29T12:21:28.521Z,11.57
2022-11-29T12:23:58.488Z,12.88
2022-11-29T12:26:56.012Z,13.55
2022-11-29T12:29:15.139Z,13.23
2022-11-29T12:31:44.412Z,13.70
2022-11-29T12:34:32.459Z,12.10
2022-11-29T12:37:07.741Z,13.57
2022-11-29T12:39:52.892Z,12.80
2022-11-29T12:42:22.320Z,13.20
2022-11-29T12:44:51.661Z,12.30
2022-11-29T12:47:37.230Z,12.77
2022-11-29T12:50:09.635Z,11.90
2022-11-29T12:52:38.956Z,12.10
2022-11-29T12:55:24.070Z,12.85
2022-11-29T12:57:59.780Z,11.23
2022-11-29T13:00:28.745Z,10.55
2022-11-29T13:03:00.578Z,12.85
2022-11-29T13:05:30.078Z,11.73
2022-11-29T13:08:04.826Z,13.00
2022-11-29T13:10:49.861Z,10.63
2022-11-29T13:13:31.281Z,13.53
2022-11-29T13:16:05.837Z,13.00
2022-11-29T13:18:47.095Z,13.83
2022-11-29T13:21:19.305Z,11.80
2022-11-29T13:26:37.694Z,13.52
2022-11-29T13:29:04.642Z,12.30
2022-11-29T13:31:31.188Z,12.15
2022-11-29T13:34:09.808Z,11.13
2022-11-29T13:36:54.351Z,12.50
2022-11-29T13:39:29.901Z,12.40
2022-11-29T13:44:22.573Z,11.70
2022-11-29T13:46:51.965Z,12.10
2022-11-29T13:49:36.929Z,13.02
2022-11-29T13:52:04.411Z,11.88
2022-11-29T13:54:31.806Z,11.07
2022-11-29T13:57:05.171Z,13.15
2022-11-29T13:59:32.559Z,12.10
2022-11-29T14:01:59.202Z,11.57
2022-11-29T14:04:39.162Z,12.07
2022-11-29T14:07:05.408Z,12.20
2022-11-29T14:09:34.457Z,12.40
2022-11-29T14:12:00.830Z,12.00
2022-11-29T14:14:27.120Z,12.77
2022-11-29T14:16:55.473Z,13.25
2022-11-29T14:19:33.466Z,12.65
2022-11-29T14:22:03.380Z,12.85
2022-11-29T14:24:32.445Z,13.77
2022-11-29T14:27:08.036Z,12.77
2022-11-29T14:32:00.530Z,11.00
2022-11-29T14:34:32.261Z,11.85
2022-11-29T14:37:08.650Z,12.30
2022-11-29T14:39:37.694Z,13.18
2022-11-29T14:42:17.104Z,12.35
2022-11-29T14:44:45.520Z,11.82
2022-11-29T14:47:31.660Z,12.35
2022-11-29T14:52:28.659Z,11.55
2022-11-29T14:54:55.832Z,11.80
2022-11-29T14:57:41.288Z,11.38
2022-11-29T15:00:12.174Z,13.07
2022-11-29T15:02:45.813Z,12.25
2022-11-29T15:05:18.539Z,12.60
2022-11-29T15:07:47.657Z,12.57
2022-11-29T15:10:22.646Z,11.55
2022-11-29T15:12:49.232Z,11.52
2022-11-29T15:15:23.903Z,12.55
2022-11-29T15:18:00.935Z,13.87
2022-11-29T15:20:37.498Z,13.60
2022-11-29T15:23:05.551Z,12.20
2022-11-29T15:25:32.252Z,13.05
2022-11-29T15:28:00.273Z,14.13
2022-11-29T15:30:26.690Z,14.88
2022-11-29T15:32:52.977Z,13.65
2022-11-29T15:35:19.782Z,14.90
2022-11-29T15:37:47.024Z,15.02
2022-11-29T15:40:15.162Z,15.35
2022-11-29T15:42:47.082Z,15.02
2022-11-29T15:45:27.168Z,13.57
2022-11-29T15:47:53.849Z,13.82
2022-11-29T15:50:27.343Z,16.42
2022-11-29T15:52:57.500Z,14.40
2022-11-29T15:55:24.240Z,13.75
2022-11-29T15:57:52.201Z,16.10
2022-11-29T16:00:20.291Z,16.35
2022-11-29T16:02:50.243Z,18.33
2022-11-29T16:05:20.509Z,24.42
2022-11-29T16:07:47.150Z,16.92
2022-11-29T16:10:18.023Z,17.52
2022-11-29T16:12:58.370Z,18.70
2022-11-29T16:15:32.053Z,21.63
2022-11-29T16:18:15.320Z,17.13
2022-11-29T16:20:41.584Z,16.95
2022-11-29T16:23:07.865Z,21.15
2022-11-29T16:25:37.601Z,17.27
2022-11-29T16:28:05.985Z,20.27
2022-11-29T16:30:32.340Z,25.55
2022-11-29T16:32:59.812Z,19.50
2022-11-29T16:35:27.270Z,22.13
2022-11-29T16:37:53.664Z,19.60
2022-11-29T16:40:24.585Z,24.80
2022-11-29T16:43:03.341Z,31.38
2022-11-29T16:45:33.391Z,35.80
2022-11-29T16:48:00.258Z,19.85
2022-11-29T16:50:27.509Z,22.67
2022-11-29T16:52:56.777Z,23.05
2022-11-29T16:55:23.445Z,19.67
2022-11-29T16:57:49.813Z,20.67
2022-11-29T17:00:16.292Z,20.58
2022-11-29T17:02:42.646Z,23.45
2022-11-29T17:05:09.033Z,18.50
2022-11-29T17:07:37.076Z,28.00
2022-11-29T17:10:05.071Z,20.63
2022-11-29T17:12:31.610Z,17.13
2022-11-29T17:14:57.863Z,17.80
2022-11-29T17:17:24.265Z,16.42
2022-11-29T17:19:50.526Z,15.85
2022-11-29T17:22:16.824Z,16.98
2022-11-29T17:24:48.029Z,19.15
2022-11-29T17:27:15.115Z,16.67
2022-11-29T17:29:42.502Z,20.20
2022-11-29T17:32:08.888Z,20.23
2022-11-29T17:34:35.224Z,20.77
2022-11-29T17:37:01.592Z,19.52
2022-11-29T17:39:27.915Z,16.98
2022-11-29T17:41:54.354Z,19.05
2022-11-29T17:44:20.744Z,15.38
2022-11-29T17:46:47.046Z,15.80
2022-11-29T17:49:13.571Z,15.30
2022-11-29T17:51:51.665Z,15.10
2022-11-29T17:54:18.387Z,15.23
2022-11-29T17:56:44.753Z,16.35
2022-11-29T17:59:11.412Z,19.13
2022-11-29T18:01:37.862Z,17.35
2022-11-29T18:04:05.442Z,18.83
2022-11-29T18:06:36.196Z,16.80
2022-11-29T18:09:05.933Z,17.33
2022-11-29T18:11:41.667Z,17.90
2022-11-29T18:14:14.151Z,18.67
2022-11-29T18:16:40.964Z,19.27
2022-11-29T18:19:08.965Z,18.73
2022-11-29T18:21:35.815Z,16.23
2022-11-29T18:24:03.161Z,16.42
2022-11-29T18:26:30.010Z,13.88
2022-11-29T18:28:57.773Z,13.05
2022-11-29T18:31:25.251Z,17.30
2022-11-29T18:33:59.235Z,22.88
2022-11-29T18:36:26.710Z,13.15
2022-11-29T18:39:00.097Z,12.65
2022-11-29T18:41:28.186Z,12.98
2022-11-29T18:44:01.559Z,12.18
2022-11-29T18:46:32.265Z,12.52
2022-11-29T18:48:59.907Z,12.52
2022-11-29T18:51:26.476Z,12.48
2022-11-29T18:53:52.825Z,11.73
2022-11-29T18:56:22.150Z,11.23
2022-11-29T18:58:58.421Z,11.88
2022-11-29T19:01:26.093Z,12.27
2022-11-29T19:03:53.551Z,21.92
2022-11-29T19:06:21.014Z,32.83
2022-11-29T19:08:47.781Z,16.58
2022-11-29T19:11:21.306Z,14.95
2022-11-29T19:13:48.185Z,14.35
2022-11-29T19:16:15.981Z,11.93
2022-11-29T19:18:43.297Z,13.52
2022-11-29T19:21:13.712Z,18.10
2022-11-29T19:23:41.270Z,12.13
2022-11-29T19:26:08.725Z,13.07
2022-11-29T19:28:36.105Z,15.35
2022-11-29T19:31:02.554Z,13.95
2022-11-29T19:33:28.843Z,11.57
2022-11-29T19:35:55.146Z,10.73
2022-11-29T19:38:21.428Z,11.13
2022-11-29T19:40:47.844Z,10.10
2022-11-29T19:43:14.178Z,9.98
2022-11-29T19:45:40.719Z,10.13
2022-11-29T19:48:07.032Z,9.23
2022-11-29T19:50:33.263Z,9.10
2022-11-29T19:52:59.605Z,9.65
2022-11-29T19:55:25.931Z,8.95
2022-11-29T19:57:52.260Z,9.38
2022-11-29T20:00:18.959Z,10.10
2022-11-29T20:02:45.292Z,11.15
2022-11-29T20:05:12.496Z,10.07
2022-11-29T20:07:38.800Z,10.00
2022-11-29T20:10:07.023Z,9.50
2022-11-29T20:12:33.519Z,9.45
2022-11-29T20:15:01.004Z,11.65
2022-11-29T20:17:27.478Z,9.57
2022-11-29T20:19:53.845Z,9.55
2022-11-29T20:22:20.182Z,9.32
2022-11-29T20:24:46.504Z,9.90
2022-11-29T20:27:13.014Z,9.65
2022-11-29T20:29:39.306Z,9.80
2022-11-29T20:32:05.643Z,10.13
2022-11-29T20:34:32.005Z,9.25
2022-11-29T20:37:10.687Z,9.20
2022-11-29T20:39:40.071Z,10.93
2022-11-29T20:42:21.975Z,9.35
2022-11-29T20:44:55.476Z,8.63
2022-11-29T20:47:23.112Z,8.30
2022-11-29T20:49:49.853Z,9.43
2022-11-29T20:52:34.852Z,8.90
2022-11-29T20:55:01.254Z,8.10
2022-11-29T20:57:27.600Z,8.68
2022-11-29T20:59:54.167Z,9.02
2022-11-29T21:02:20.769Z,10.50
2022-11-29T21:04:47.169Z,9.75
2022-11-29T21:07:13.624Z,8.65
2022-11-29T21:09:39.933Z,7.70
2022-11-29T21:12:06.758Z,8.38
2022-11-29T21:14:33.497Z,8.32
2022-11-29T21:17:00.129Z,7.90
2022-11-29T21:19:26.617Z,8.55
2022-11-29T21:22:10.483Z,8.15
2022-11-29T21:24:55.456Z,8.60
2022-11-29T21:27:26.876Z,8.10
2022-11-29T21:29:53.339Z,8.48
2022-11-29T21:32:23.504Z,8.77
2022-11-29T21:34:49.934Z,9.43
2022-11-29T21:37:18.162Z,10.27
2022-11-29T21:39:44.583Z,10.07
2022-11-29T21:42:11.290Z,9.07
2022-11-29T21:44:37.567Z,9.43
2022-11-29T21:47:04.404Z,8.95
2022-11-29T21:49:30.936Z,9.38
2022-11-29T21:52:00.046Z,9.55
2022-11-29T21:54:26.894Z,8.98
2022-11-29T21:56:53.304Z,9.07
2022-11-29T21:59:19.546Z,9.35
2022-11-29T22:01:45.948Z,8.75
2022-11-29T22:04:12.750Z,8.90
2022-11-29T22:06:39.142Z,9.30
2022-11-29T22:09:07.636Z,9.02
2022-11-29T22:11:35.362Z,8.75
2022-11-29T22:14:13.765Z,9.60
2022-11-29T22:16:42.540Z,8.90
2022-11-29T22:19:10.061Z,9.80
2022-11-29T22:21:36.325Z,9.18
2022-11-29T22:24:02.631Z,9.30
2022-11-29T22:26:28.929Z,9.50
2022-11-29T22:28:55.443Z,9.05
2022-11-29T22:31:21.762Z,9.90
2022-11-29T22:33:48.019Z,10.25
2022-11-29T22:36:14.419Z,12.07
2022-11-29T22:38:40.811Z,11.43
2022-11-29T22:41:11.519Z,11.45
2022-11-29T22:43:38.275Z,11.45
2022-11-29T22:46:08.452Z,12.00
2022-11-29T22:48:38.645Z,12.02
2022-11-29T22:51:10.473Z,13.05
2022-11-29T22:53:37.481Z,13.35
2022-11-29T22:56:04.448Z,14.00
2022-11-29T22:58:30.874Z,14.15
2022-11-29T23:01:04.706Z,14.60
2022-11-29T23:03:34.937Z,14.48
2022-11-29T23:06:12.553Z,15.23
2022-11-29T23:08:39.484Z,14.57
2022-11-29T23:11:09.050Z,14.43
2022-11-29T23:13:36.788Z,14.18
2022-11-29T23:16:04.047Z,14.73
2022-11-29T23:18:30.602Z,15.35
2022-11-29T23:21:04.201Z,14.60
2022-11-29T23:23:30.989Z,16.08
2022-11-29T23:25:57.607Z,15.15
2022-11-29T23:28:24.501Z,16.40
2022-11-29T23:30:51.081Z,16.30
2022-11-29T23:33:17.334Z,16.30
2022-11-29T23:35:43.918Z,17.23
2022-11-29T23:38:10.218Z,17.52
2022-11-29T23:40:36.534Z,15.00
2022-11-29T23:43:02.961Z,16.35
2022-11-29T23:45:29.294Z,17.70
2022-11-29T23:47:56.169Z,18.15
2022-11-29T23:50:23.255Z,17.02
2022-11-29T23:52:53.784Z,17.27
2022-11-29T23:55:20.473Z,19.15
2022-11-29T23:57:46.904Z,19.75
